sensor_id;sensor_type;location;lat;lon;timestamp;P1;durP1;ratioP1;P2;durP2;ratioP2
22184;SDS011;11258;52.516;13.318;2022-08-21T00:01:14;6.75;;;6.05;;
22184;SDS011;11258;52.516;13.318;2022-08-21T00:03:43;7.50;;;5.72;;
22184;SDS011;11258;52.516;13.318;2022-08-21T00:06:08;8.55;;;5.93;;
22184;SDS011;11258;52.516;13.318;2022-08-21T00:08:34;7.05;;;6.30;;
22184;SDS011;11258;52.516;13.318;2022-08-21T00:11:00;6.55;;;5.75;;
22184;SDS011;11258;52.516;13.318;2022-08-21T00:13:25;7.53;;;6.03;;
22184;SDS011;11258;52.516;13.318;2022-08-21T00:15:51;6.32;;;5.72;;
22184;SDS011;11258;52.516;13.318;2022-08-21T00:18:17;6.13;;;5.45;;
22184;SDS011;11258;52.516;13.318;2022-08-21T00:20:44;7.30;;;5.82;;
22184;SDS011;11258;52.516;13.318;2022-08-21T00:23:10;7.82;;;5.45;;
22184;SDS011;11258;52.516;13.318;2022-08-21T00:25:36;6.88;;;5.55;;
22184;SDS011;11258;52.516;13.318;2022-08-21T00:28:03;7.53;;;6.07;;
22184;SDS011;11258;52.516;13.318;2022-08-21T00:30:29;7.60;;;6.15;;
22184;SDS011;11258;52.516;13.318;2022-08-21T00:32:56;8.20;;;6.30;;
22184;SDS011;11258;52.516;13.318;2022-08-21T00:35:23;7.70;;;6.90;;
22184;SDS011;11258;52.516;13.318;2022-08-21T00:37:50;8.18;;;6.60;;
22184;SDS011;11258;52.516;13.318;2022-08-21T00:40:18;8.85;;;6.43;;
22184;SDS011;11258;52.516;13.318;2022-08-21T00:42:47;9.98;;;7.00;;
22184;SDS011;11258;52.516;13.318;2022-08-21T00:45:13;9.43;;;6.97;;
22184;SDS011;11258;52.516;13.318;2022-08-21T00:47:38;11.65;;;6.97;;
22184;SDS011;11258;52.516;13.318;2022-08-21T00:50:06;8.77;;;6.80;;
22184;SDS011;11258;52.516;13.318;2022-08-21T00:52:34;8.73;;;7.30;;
22184;SDS011;11258;52.516;13.318;2022-08-21T00:55:02;9.52;;;7.22;;
22184;SDS011;11258;52.516;13.318;2022-08-21T00:57:31;9.30;;;7.05;;
22184;SDS011;11258;52.516;13.318;2022-08-21T01:00:04;8.13;;;7.32;;
22184;SDS011;11258;52.516;13.318;2022-08-21T01:02:34;7.68;;;6.82;;
22184;SDS011;11258;52.516;13.318;2022-08-21T01:05:00;8.50;;;7.60;;
22184;SDS011;11258;52.516;13.318;2022-08-21T01:07:26;9.52;;;8.55;;
22184;SDS011;11258;52.516;13.318;2022-08-21T01:09:51;9.15;;;7.57;;
22184;SDS011;11258;52.516;13.318;2022-08-21T01:12:17;8.65;;;7.75;;
22184;SDS011;11258;52.516;13.318;2022-08-21T01:14:43;10.43;;;7.75;;
22184;SDS011;11258;52.516;13.318;2022-08-21T01:17:10;8.52;;;6.93;;
22184;SDS011;11258;52.516;13.318;2022-08-21T01:19:39;8.23;;;7.40;;
22184;SDS011;11258;52.516;13.318;2022-08-21T01:22:05;9.30;;;7.70;;
22184;SDS011;11258;52.516;13.318;2022-08-21T01:24:31;8.60;;;7.28;;
22184;SDS011;11258;52.516;13.318;2022-08-21T01:26:57;9.57;;;7.60;;
22184;SDS011;11258;52.516;13.318;2022-08-21T01:29:43;8.65;;;7.10;;
22184;SDS011;11258;52.516;13.318;2022-08-21T01:32:16;10.15;;;7.05;;
22184;SDS011;11258;52.516;13.318;2022-08-21T01:34:44;8.65;;;7.18;;
22184;SDS011;11258;52.516;13.318;2022-08-21T01:37:10;8.23;;;7.22;;
22184;SDS011;11258;52.516;13.318;2022-08-21T01:39:37;7.82;;;6.95;;
22184;SDS011;11258;52.516;13.318;2022-08-21T01:42:03;8.45;;;7.38;;
22184;SDS011;11258;52.516;13.318;2022-08-21T01:44:29;9.70;;;7.35;;
22184;SDS011;11258;52.516;13.318;2022-08-21T01:46:54;9.93;;;7.18;;
22184;SDS011;11258;52.516;13.318;2022-08-21T01:49:22;8.20;;;7.10;;
22184;SDS011;11258;52.516;13.318;2022-08-21T01:51:48;10.80;;;7.32;;
22184;SDS011;11258;52.516;13.318;2022-08-21T01:54:13;7.07;;;6.28;;
22184;SDS011;11258;52.516;13.318;2022-08-21T01:56:40;7.75;;;6.70;;
22184;SDS011;11258;52.516;13.318;2022-08-21T01:59:09;10.77;;;7.80;;
22184;SDS011;11258;52.516;13.318;2022-08-21T02:01:35;6.43;;;5.70;;
22184;SDS011;11258;52.516;13.318;2022-08-21T02:04:01;7.00;;;5.53;;
22184;SDS011;11258;52.516;13.318;2022-08-21T02:06:27;8.88;;;5.00;;
22184;SDS011;11258;52.516;13.318;2022-08-21T02:08:53;5.65;;;5.05;;
22184;SDS011;11258;52.516;13.318;2022-08-21T02:11:18;6.93;;;4.90;;
22184;SDS011;11258;52.516;13.318;2022-08-21T02:13:44;7.95;;;4.53;;
22184;SDS011;11258;52.516;13.318;2022-08-21T02:16:10;7.28;;;5.32;;
22184;SDS011;11258;52.516;13.318;2022-08-21T02:18:37;8.75;;;5.88;;
22184;SDS011;11258;52.516;13.318;2022-08-21T02:21:03;5.75;;;4.75;;
22184;SDS011;11258;52.516;13.318;2022-08-21T02:23:29;10.98;;;4.75;;
22184;SDS011;11258;52.516;13.318;2022-08-21T02:25:56;7.85;;;5.32;;
22184;SDS011;11258;52.516;13.318;2022-08-21T02:28:23;5.50;;;4.15;;
22184;SDS011;11258;52.516;13.318;2022-08-21T02:30:49;4.90;;;4.32;;
22184;SDS011;11258;52.516;13.318;2022-08-21T02:33:15;8.68;;;4.00;;
22184;SDS011;11258;52.516;13.318;2022-08-21T02:35:42;6.75;;;5.03;;
22184;SDS011;11258;52.516;13.318;2022-08-21T02:38:11;5.45;;;4.45;;
22184;SDS011;11258;52.516;13.318;2022-08-21T02:40:41;6.05;;;4.60;;
22184;SDS011;11258;52.516;13.318;2022-08-21T02:43:07;6.82;;;4.38;;
22184;SDS011;11258;52.516;13.318;2022-08-21T02:45:34;8.13;;;5.45;;
22184;SDS011;11258;52.516;13.318;2022-08-21T02:48:03;7.22;;;4.10;;
22184;SDS011;11258;52.516;13.318;2022-08-21T02:50:33;7.13;;;4.60;;
22184;SDS011;11258;52.516;13.318;2022-08-21T02:53:05;4.43;;;3.70;;
22184;SDS011;11258;52.516;13.318;2022-08-21T02:55:33;6.75;;;4.55;;
22184;SDS011;11258;52.516;13.318;2022-08-21T02:58:00;8.73;;;3.75;;
22184;SDS011;11258;52.516;13.318;2022-08-21T03:00:28;8.38;;;4.13;;
22184;SDS011;11258;52.516;13.318;2022-08-21T03:02:55;6.35;;;3.90;;
22184;SDS011;11258;52.516;13.318;2022-08-21T03:05:21;5.70;;;3.67;;
22184;SDS011;11258;52.516;13.318;2022-08-21T03:07:48;5.95;;;3.38;;
22184;SDS011;11258;52.516;13.318;2022-08-21T03:10:14;6.80;;;3.70;;
22184;SDS011;11258;52.516;13.318;2022-08-21T03:12:40;7.72;;;4.00;;
22184;SDS011;11258;52.516;13.318;2022-08-21T03:15:07;5.68;;;3.83;;
22184;SDS011;11258;52.516;13.318;2022-08-21T03:20:13;7.45;;;3.38;;
22184;SDS011;11258;52.516;13.318;2022-08-21T03:22:41;6.82;;;3.30;;
22184;SDS011;11258;52.516;13.318;2022-08-21T03:25:07;6.13;;;3.53;;
22184;SDS011;11258;52.516;13.318;2022-08-21T03:27:33;6.30;;;3.10;;
22184;SDS011;11258;52.516;13.318;2022-08-21T03:29:59;5.90;;;3.25;;
22184;SDS011;11258;52.516;13.318;2022-08-21T03:32:26;6.40;;;3.50;;
22184;SDS011;11258;52.516;13.318;2022-08-21T03:34:52;4.93;;;2.88;;
22184;SDS011;11258;52.516;13.318;2022-08-21T03:37:18;5.25;;;3.25;;
22184;SDS011;11258;52.516;13.318;2022-08-21T03:39:43;6.05;;;3.28;;
22184;SDS011;11258;52.516;13.318;2022-08-21T03:42:10;4.22;;;3.20;;
22184;SDS011;11258;52.516;13.318;2022-08-21T03:44:36;9.60;;;3.67;;
22184;SDS011;11258;52.516;13.318;2022-08-21T03:47:04;5.78;;;3.30;;
22184;SDS011;11258;52.516;13.318;2022-08-21T03:49:30;5.85;;;3.25;;
22184;SDS011;11258;52.516;13.318;2022-08-21T03:51:56;6.25;;;2.97;;
22184;SDS011;11258;52.516;13.318;2022-08-21T03:54:22;5.32;;;2.95;;
22184;SDS011;11258;52.516;13.318;2022-08-21T03:56:47;8.48;;;3.55;;
22184;SDS011;11258;52.516;13.318;2022-08-21T03:59:13;8.77;;;3.45;;
22184;SDS011;11258;52.516;13.318;2022-08-21T04:01:39;6.88;;;3.67;;
22184;SDS011;11258;52.516;13.318;2022-08-21T04:04:05;6.30;;;2.90;;
22184;SDS011;11258;52.516;13.318;2022-08-21T04:06:30;6.97;;;2.85;;
22184;SDS011;11258;52.516;13.318;2022-08-21T04:08:57;7.40;;;3.40;;
22184;SDS011;11258;52.516;13.318;2022-08-21T04:11:23;5.80;;;2.78;;
22184;SDS011;11258;52.516;13.318;2022-08-21T04:13:49;6.45;;;3.22;;
22184;SDS011;11258;52.516;13.318;2022-08-21T04:16:15;5.13;;;2.67;;
22184;SDS011;11258;52.516;13.318;2022-08-21T04:18:40;6.63;;;3.03;;
22184;SDS011;11258;52.516;13.318;2022-08-21T04:21:07;14.70;;;3.28;;
22184;SDS011;11258;52.516;13.318;2022-08-21T04:23:35;7.32;;;2.85;;
22184;SDS011;11258;52.516;13.318;2022-08-21T04:26:01;5.55;;;2.97;;
22184;SDS011;11258;52.516;13.318;2022-08-21T04:28:27;4.15;;;2.85;;
22184;SDS011;11258;52.516;13.318;2022-08-21T04:30:53;6.13;;;2.85;;
22184;SDS011;11258;52.516;13.318;2022-08-21T04:33:20;7.00;;;2.67;;
22184;SDS011;11258;52.516;13.318;2022-08-21T04:35:46;8.90;;;3.45;;
22184;SDS011;11258;52.516;13.318;2022-08-21T04:38:13;7.32;;;2.95;;
22184;SDS011;11258;52.516;13.318;2022-08-21T04:40:39;4.90;;;2.45;;
22184;SDS011;11258;52.516;13.318;2022-08-21T04:43:06;5.68;;;2.67;;
22184;SDS011;11258;52.516;13.318;2022-08-21T04:45:38;4.93;;;2.70;;
22184;SDS011;11258;52.516;13.318;2022-08-21T04:48:10;4.65;;;2.38;;
22184;SDS011;11258;52.516;13.318;2022-08-21T04:51:19;4.88;;;2.70;;
22184;SDS011;11258;52.516;13.318;2022-08-21T04:53:38;9.10;;;6.03;;
22184;SDS011;11258;52.516;13.318;2022-08-21T04:56:13;5.72;;;3.03;;
22184;SDS011;11258;52.516;13.318;2022-08-21T04:58:43;5.57;;;2.47;;
22184;SDS011;11258;52.516;13.318;2022-08-21T05:01:11;6.75;;;3.28;;
22184;SDS011;11258;52.516;13.318;2022-08-21T05:03:40;5.47;;;2.83;;
22184;SDS011;11258;52.516;13.318;2022-08-21T05:06:08;8.20;;;2.90;;
22184;SDS011;11258;52.516;13.318;2022-08-21T05:08:36;5.47;;;2.58;;
22184;SDS011;11258;52.516;13.318;2022-08-21T05:11:03;6.60;;;2.80;;
22184;SDS011;11258;52.516;13.318;2022-08-21T05:13:29;5.75;;;3.00;;
22184;SDS011;11258;52.516;13.318;2022-08-21T05:15:55;6.05;;;2.45;;
22184;SDS011;11258;52.516;13.318;2022-08-21T05:18:21;7.38;;;2.60;;
22184;SDS011;11258;52.516;13.318;2022-08-21T05:20:47;4.82;;;2.28;;
22184;SDS011;11258;52.516;13.318;2022-08-21T05:23:13;3.10;;;2.40;;
22184;SDS011;11258;52.516;13.318;2022-08-21T05:25:39;6.22;;;3.25;;
22184;SDS011;11258;52.516;13.318;2022-08-21T05:28:05;4.82;;;2.60;;
22184;SDS011;11258;52.516;13.318;2022-08-21T05:30:31;4.93;;;2.50;;
22184;SDS011;11258;52.516;13.318;2022-08-21T05:32:59;9.27;;;2.80;;
22184;SDS011;11258;52.516;13.318;2022-08-21T05:35:27;4.72;;;2.35;;
22184;SDS011;11258;52.516;13.318;2022-08-21T05:37:53;6.35;;;3.28;;
22184;SDS011;11258;52.516;13.318;2022-08-21T05:40:19;8.73;;;3.60;;
22184;SDS011;11258;52.516;13.318;2022-08-21T05:42:45;6.30;;;2.90;;
22184;SDS011;11258;52.516;13.318;2022-08-21T05:45:10;6.05;;;2.70;;
22184;SDS011;11258;52.516;13.318;2022-08-21T05:47:36;8.45;;;3.42;;
22184;SDS011;11258;52.516;13.318;2022-08-21T05:50:02;7.68;;;2.78;;
22184;SDS011;11258;52.516;13.318;2022-08-21T05:52:28;3.15;;;2.00;;
22184;SDS011;11258;52.516;13.318;2022-08-21T05:54:53;5.05;;;2.40;;
22184;SDS011;11258;52.516;13.318;2022-08-21T05:57:20;6.07;;;2.40;;
22184;SDS011;11258;52.516;13.318;2022-08-21T05:59:46;6.00;;;3.20;;
22184;SDS011;11258;52.516;13.318;2022-08-21T06:02:12;5.03;;;3.13;;
22184;SDS011;11258;52.516;13.318;2022-08-21T06:04:38;7.22;;;3.25;;
22184;SDS011;11258;52.516;13.318;2022-08-21T06:07:04;3.10;;;2.15;;
22184;SDS011;11258;52.516;13.318;2022-08-21T06:09:30;6.30;;;3.03;;
22184;SDS011;11258;52.516;13.318;2022-08-21T06:11:57;5.15;;;2.25;;
22184;SDS011;11258;52.516;13.318;2022-08-21T06:14:23;5.18;;;2.58;;
22184;SDS011;11258;52.516;13.318;2022-08-21T06:16:48;4.97;;;2.72;;
22184;SDS011;11258;52.516;13.318;2022-08-21T06:19:14;5.10;;;2.83;;
22184;SDS011;11258;52.516;13.318;2022-08-21T06:21:39;5.43;;;2.85;;
22184;SDS011;11258;52.516;13.318;2022-08-21T06:24:05;5.45;;;2.53;;
22184;SDS011;11258;52.516;13.318;2022-08-21T06:26:31;5.90;;;1.95;;
22184;SDS011;11258;52.516;13.318;2022-08-21T06:28:57;6.90;;;2.83;;
22184;SDS011;11258;52.516;13.318;2022-08-21T06:31:24;5.20;;;2.95;;
22184;SDS011;11258;52.516;13.318;2022-08-21T06:33:51;6.47;;;2.70;;
22184;SDS011;11258;52.516;13.318;2022-08-21T06:36:17;4.68;;;2.40;;
22184;SDS011;11258;52.516;13.318;2022-08-21T06:38:45;5.05;;;2.50;;
22184;SDS011;11258;52.516;13.318;2022-08-21T06:41:11;4.43;;;2.08;;
22184;SDS011;11258;52.516;13.318;2022-08-21T06:43:36;8.35;;;4.18;;
22184;SDS011;11258;52.516;13.318;2022-08-21T06:46:02;5.32;;;2.63;;
22184;SDS011;11258;52.516;13.318;2022-08-21T06:48:28;6.95;;;2.10;;
22184;SDS011;11258;52.516;13.318;2022-08-21T06:50:56;6.78;;;3.08;;
22184;SDS011;11258;52.516;13.318;2022-08-21T06:53:24;6.57;;;2.75;;
22184;SDS011;11258;52.516;13.318;2022-08-21T06:55:49;4.32;;;2.83;;
22184;SDS011;11258;52.516;13.318;2022-08-21T06:58:15;6.80;;;2.13;;
22184;SDS011;11258;52.516;13.318;2022-08-21T07:00:42;8.65;;;2.75;;
22184;SDS011;11258;52.516;13.318;2022-08-21T07:03:21;7.97;;;2.42;;
22184;SDS011;11258;52.516;13.318;2022-08-21T07:05:49;6.10;;;2.63;;
22184;SDS011;11258;52.516;13.318;2022-08-21T07:08:15;3.63;;;2.03;;
22184;SDS011;11258;52.516;13.318;2022-08-21T07:10:41;7.00;;;4.40;;
22184;SDS011;11258;52.516;13.318;2022-08-21T07:13:07;4.82;;;2.38;;
22184;SDS011;11258;52.516;13.318;2022-08-21T07:15:32;4.20;;;2.15;;
22184;SDS011;11258;52.516;13.318;2022-08-21T07:17:58;11.25;;;5.18;;
22184;SDS011;11258;52.516;13.318;2022-08-21T07:20:24;6.65;;;2.63;;
22184;SDS011;11258;52.516;13.318;2022-08-21T07:22:51;6.13;;;2.58;;
22184;SDS011;11258;52.516;13.318;2022-08-21T07:25:17;6.22;;;2.47;;
22184;SDS011;11258;52.516;13.318;2022-08-21T07:27:43;6.50;;;2.05;;
22184;SDS011;11258;52.516;13.318;2022-08-21T07:30:08;5.07;;;1.75;;
22184;SDS011;11258;52.516;13.318;2022-08-21T07:32:34;5.30;;;2.05;;
22184;SDS011;11258;52.516;13.318;2022-08-21T07:35:00;5.38;;;1.92;;
22184;SDS011;11258;52.516;13.318;2022-08-21T07:37:25;5.28;;;1.83;;
22184;SDS011;11258;52.516;13.318;2022-08-21T07:39:51;8.85;;;2.50;;
22184;SDS011;11258;52.516;13.318;2022-08-21T07:42:16;7.25;;;1.90;;
22184;SDS011;11258;52.516;13.318;2022-08-21T07:44:42;4.78;;;1.77;;
22184;SDS011;11258;52.516;13.318;2022-08-21T07:47:08;7.00;;;2.45;;
22184;SDS011;11258;52.516;13.318;2022-08-21T07:49:34;5.93;;;2.40;;
22184;SDS011;11258;52.516;13.318;2022-08-21T07:52:00;4.95;;;2.42;;
22184;SDS011;11258;52.516;13.318;2022-08-21T07:54:26;4.90;;;2.83;;
22184;SDS011;11258;52.516;13.318;2022-08-21T07:56:51;6.10;;;2.67;;
22184;SDS011;11258;52.516;13.318;2022-08-21T07:59:17;5.72;;;2.30;;
22184;SDS011;11258;52.516;13.318;2022-08-21T08:01:42;8.05;;;2.65;;
22184;SDS011;11258;52.516;13.318;2022-08-21T08:04:08;7.05;;;2.67;;
22184;SDS011;11258;52.516;13.318;2022-08-21T08:06:34;8.18;;;2.67;;
22184;SDS011;11258;52.516;13.318;2022-08-21T08:08:59;9.90;;;3.38;;
22184;SDS011;11258;52.516;13.318;2022-08-21T08:11:27;8.65;;;5.32;;
22184;SDS011;11258;52.516;13.318;2022-08-21T08:13:53;4.70;;;3.20;;
22184;SDS011;11258;52.516;13.318;2022-08-21T08:16:18;6.75;;;2.53;;
22184;SDS011;11258;52.516;13.318;2022-08-21T08:18:45;7.38;;;3.10;;
22184;SDS011;11258;52.516;13.318;2022-08-21T08:21:11;4.55;;;2.05;;
22184;SDS011;11258;52.516;13.318;2022-08-21T08:23:37;4.75;;;2.25;;
22184;SDS011;11258;52.516;13.318;2022-08-21T08:26:03;6.13;;;2.38;;
22184;SDS011;11258;52.516;13.318;2022-08-21T08:28:30;6.40;;;2.42;;
22184;SDS011;11258;52.516;13.318;2022-08-21T08:30:56;3.42;;;2.17;;
22184;SDS011;11258;52.516;13.318;2022-08-21T08:33:23;4.50;;;1.88;;
22184;SDS011;11258;52.516;13.318;2022-08-21T08:35:49;8.13;;;2.05;;
22184;SDS011;11258;52.516;13.318;2022-08-21T08:38:17;5.90;;;2.30;;
22184;SDS011;11258;52.516;13.318;2022-08-21T08:41:10;5.60;;;3.00;;
22184;SDS011;11258;52.516;13.318;2022-08-21T08:43:44;7.45;;;2.97;;
22184;SDS011;11258;52.516;13.318;2022-08-21T08:46:17;7.97;;;2.70;;
22184;SDS011;11258;52.516;13.318;2022-08-21T08:48:57;4.93;;;2.08;;
22184;SDS011;11258;52.516;13.318;2022-08-21T08:51:40;4.65;;;2.70;;
22184;SDS011;11258;52.516;13.318;2022-08-21T08:54:15;7.55;;;2.50;;
22184;SDS011;11258;52.516;13.318;2022-08-21T08:56:46;6.57;;;2.72;;
22184;SDS011;11258;52.516;13.318;2022-08-21T08:59:18;5.78;;;3.40;;
22184;SDS011;11258;52.516;13.318;2022-08-21T09:01:47;7.72;;;3.95;;
22184;SDS011;11258;52.516;13.318;2022-08-21T09:04:23;4.95;;;2.53;;
22184;SDS011;11258;52.516;13.318;2022-08-21T09:20:14;5.78;;;2.22;;
22184;SDS011;11258;52.516;13.318;2022-08-21T09:25:45;5.53;;;1.98;;
22184;SDS011;11258;52.516;13.318;2022-08-21T09:28:20;4.10;;;2.25;;
22184;SDS011;11258;52.516;13.318;2022-08-21T09:30:46;3.33;;;2.20;;
22184;SDS011;11258;52.516;13.318;2022-08-21T09:33:12;4.07;;;2.28;;
22184;SDS011;11258;52.516;13.318;2022-08-21T09:35:47;7.18;;;2.20;;
22184;SDS011;11258;52.516;13.318;2022-08-21T09:38:31;5.85;;;2.40;;
22184;SDS011;11258;52.516;13.318;2022-08-21T09:41:01;4.93;;;2.25;;
22184;SDS011;11258;52.516;13.318;2022-08-21T09:43:32;5.47;;;2.20;;
22184;SDS011;11258;52.516;13.318;2022-08-21T09:46:09;3.65;;;2.00;;
22184;SDS011;11258;52.516;13.318;2022-08-21T09:48:41;5.78;;;3.03;;
22184;SDS011;11258;52.516;13.318;2022-08-21T09:51:28;7.13;;;2.58;;
22184;SDS011;11258;52.516;13.318;2022-08-21T09:54:13;5.70;;;2.15;;
22184;SDS011;11258;52.516;13.318;2022-08-21T09:56:56;4.95;;;2.03;;
22184;SDS011;11258;52.516;13.318;2022-08-21T09:59:42;4.45;;;2.50;;
22184;SDS011;11258;52.516;13.318;2022-08-21T10:04:53;7.57;;;2.88;;
22184;SDS011;11258;52.516;13.318;2022-08-21T10:07:24;7.30;;;2.58;;
22184;SDS011;11258;52.516;13.318;2022-08-21T10:09:59;6.70;;;2.60;;
22184;SDS011;11258;52.516;13.318;2022-08-21T10:12:33;6.18;;;2.67;;
22184;SDS011;11258;52.516;13.318;2022-08-21T10:15:24;6.00;;;2.38;;
22184;SDS011;11258;52.516;13.318;2022-08-21T10:25:57;5.35;;;2.28;;
22184;SDS011;11258;52.516;13.318;2022-08-21T10:28:31;6.82;;;3.97;;
22184;SDS011;11258;52.516;13.318;2022-08-21T10:31:41;3.97;;;2.72;;
22184;SDS011;11258;52.516;13.318;2022-08-21T10:34:16;5.43;;;3.00;;
22184;SDS011;11258;52.516;13.318;2022-08-21T10:37:01;5.63;;;3.13;;
22184;SDS011;11258;52.516;13.318;2022-08-21T10:39:48;3.08;;;1.63;;
22184;SDS011;11258;52.516;13.318;2022-08-21T10:42:28;3.70;;;2.00;;
22184;SDS011;11258;52.516;13.318;2022-08-21T10:47:40;3.47;;;2.00;;
22184;SDS011;11258;52.516;13.318;2022-08-21T10:53:02;3.67;;;1.98;;
22184;SDS011;11258;52.516;13.318;2022-08-21T10:55:37;5.55;;;2.05;;
22184;SDS011;11258;52.516;13.318;2022-08-21T10:58:09;6.22;;;1.55;;
22184;SDS011;11258;52.516;13.318;2022-08-21T11:00:46;3.90;;;2.72;;
22184;SDS011;11258;52.516;13.318;2022-08-21T11:05:47;2.95;;;2.00;;
22184;SDS011;11258;52.516;13.318;2022-08-21T11:08:18;3.40;;;1.50;;
22184;SDS011;11258;52.516;13.318;2022-08-21T11:13:59;2.70;;;1.50;;
22184;SDS011;11258;52.516;13.318;2022-08-21T11:16:48;2.85;;;1.50;;
22184;SDS011;11258;52.516;13.318;2022-08-21T11:19:22;2.75;;;1.10;;
22184;SDS011;11258;52.516;13.318;2022-08-21T11:21:56;2.47;;;1.35;;
22184;SDS011;11258;52.516;13.318;2022-08-21T11:27:06;4.10;;;1.40;;
22184;SDS011;11258;52.516;13.318;2022-08-21T11:30:12;2.03;;;1.20;;
22184;SDS011;11258;52.516;13.318;2022-08-21T11:35:39;3.75;;;1.73;;
22184;SDS011;11258;52.516;13.318;2022-08-21T11:43:22;2.45;;;1.30;;
22184;SDS011;11258;52.516;13.318;2022-08-21T11:46:00;1.40;;;1.20;;
22184;SDS011;11258;52.516;13.318;2022-08-21T11:48:55;2.30;;;1.27;;
22184;SDS011;11258;52.516;13.318;2022-08-21T11:51:33;1.75;;;1.15;;
22184;SDS011;11258;52.516;13.318;2022-08-21T11:57:00;3.88;;;1.15;;
22184;SDS011;11258;52.516;13.318;2022-08-21T11:59:36;4.65;;;3.00;;
22184;SDS011;11258;52.516;13.318;2022-08-21T12:02:13;3.38;;;1.50;;
22184;SDS011;11258;52.516;13.318;2022-08-21T12:04:47;2.05;;;1.40;;
22184;SDS011;11258;52.516;13.318;2022-08-21T12:07:32;5.53;;;3.58;;
22184;SDS011;11258;52.516;13.318;2022-08-21T12:10:30;3.65;;;1.50;;
22184;SDS011;11258;52.516;13.318;2022-08-21T12:13:05;4.40;;;1.48;;
22184;SDS011;11258;52.516;13.318;2022-08-21T12:15:33;3.90;;;1.50;;
22184;SDS011;11258;52.516;13.318;2022-08-21T12:18:00;2.65;;;1.23;;
22184;SDS011;11258;52.516;13.318;2022-08-21T12:23:29;2.30;;;1.30;;
22184;SDS011;11258;52.516;13.318;2022-08-21T12:26:23;2.22;;;1.25;;
22184;SDS011;11258;52.516;13.318;2022-08-21T12:34:27;5.55;;;2.80;;
22184;SDS011;11258;52.516;13.318;2022-08-21T12:37:02;3.55;;;1.40;;
22184;SDS011;11258;52.516;13.318;2022-08-21T12:39:32;3.42;;;1.30;;
22184;SDS011;11258;52.516;13.318;2022-08-21T12:44:38;4.28;;;2.58;;
22184;SDS011;11258;52.516;13.318;2022-08-21T12:47:16;5.25;;;3.50;;
22184;SDS011;11258;52.516;13.318;2022-08-21T12:49:54;5.03;;;2.85;;
22184;SDS011;11258;52.516;13.318;2022-08-21T12:52:38;5.70;;;1.38;;
22184;SDS011;11258;52.516;13.318;2022-08-21T12:55:14;5.50;;;1.55;;
22184;SDS011;11258;52.516;13.318;2022-08-21T12:57:41;2.60;;;1.40;;
22184;SDS011;11258;52.516;13.318;2022-08-21T13:00:08;7.40;;;2.60;;
22184;SDS011;11258;52.516;13.318;2022-08-21T13:02:42;2.45;;;1.63;;
22184;SDS011;11258;52.516;13.318;2022-08-21T13:05:12;3.47;;;1.50;;
22184;SDS011;11258;52.516;13.318;2022-08-21T13:07:43;3.90;;;1.70;;
22184;SDS011;11258;52.516;13.318;2022-08-21T13:10:18;3.00;;;1.63;;
22184;SDS011;11258;52.516;13.318;2022-08-21T13:12:49;5.00;;;2.20;;
22184;SDS011;11258;52.516;13.318;2022-08-21T13:15:21;4.25;;;2.03;;
22184;SDS011;11258;52.516;13.318;2022-08-21T13:17:53;6.13;;;4.00;;
22184;SDS011;11258;52.516;13.318;2022-08-21T13:20:20;3.95;;;2.13;;
22184;SDS011;11258;52.516;13.318;2022-08-21T13:22:48;4.28;;;2.22;;
22184;SDS011;11258;52.516;13.318;2022-08-21T13:25:15;4.65;;;2.30;;
22184;SDS011;11258;52.516;13.318;2022-08-21T13:27:43;5.45;;;3.28;;
22184;SDS011;11258;52.516;13.318;2022-08-21T13:30:20;3.90;;;1.90;;
22184;SDS011;11258;52.516;13.318;2022-08-21T13:32:51;5.15;;;1.98;;
22184;SDS011;11258;52.516;13.318;2022-08-21T13:35:30;6.93;;;3.78;;
22184;SDS011;11258;52.516;13.318;2022-08-21T13:38:01;2.95;;;2.17;;
22184;SDS011;11258;52.516;13.318;2022-08-21T13:40:32;3.15;;;2.70;;
22184;SDS011;11258;52.516;13.318;2022-08-21T13:43:16;3.72;;;2.20;;
22184;SDS011;11258;52.516;13.318;2022-08-21T13:45:47;5.20;;;2.17;;
22184;SDS011;11258;52.516;13.318;2022-08-21T13:48:15;4.45;;;2.33;;
22184;SDS011;11258;52.516;13.318;2022-08-21T13:50:41;5.63;;;2.53;;
22184;SDS011;11258;52.516;13.318;2022-08-21T13:53:20;5.72;;;2.20;;
22184;SDS011;11258;52.516;13.318;2022-08-21T13:55:47;3.70;;;1.90;;
22184;SDS011;11258;52.516;13.318;2022-08-21T13:58:13;4.47;;;1.65;;
22184;SDS011;11258;52.516;13.318;2022-08-21T14:00:54;5.03;;;2.33;;
22184;SDS011;11258;52.516;13.318;2022-08-21T14:03:42;4.47;;;1.95;;
22184;SDS011;11258;52.516;13.318;2022-08-21T14:06:22;4.18;;;1.85;;
22184;SDS011;11258;52.516;13.318;2022-08-21T14:08:58;5.53;;;2.10;;
22184;SDS011;11258;52.516;13.318;2022-08-21T14:11:33;7.25;;;2.70;;
22184;SDS011;11258;52.516;13.318;2022-08-21T14:14:01;9.00;;;4.47;;
22184;SDS011;11258;52.516;13.318;2022-08-21T14:16:40;6.68;;;2.40;;
22184;SDS011;11258;52.516;13.318;2022-08-21T14:19:15;5.43;;;2.13;;
22184;SDS011;11258;52.516;13.318;2022-08-21T14:21:44;8.68;;;3.70;;
22184;SDS011;11258;52.516;13.318;2022-08-21T14:26:52;6.22;;;3.50;;
22184;SDS011;11258;52.516;13.318;2022-08-21T14:29:26;7.30;;;2.67;;
22184;SDS011;11258;52.516;13.318;2022-08-21T14:31:58;6.43;;;2.53;;
22184;SDS011;11258;52.516;13.318;2022-08-21T14:34:32;9.02;;;3.58;;
22184;SDS011;11258;52.516;13.318;2022-08-21T14:36:58;8.57;;;5.35;;
22184;SDS011;11258;52.516;13.318;2022-08-21T14:39:24;6.22;;;2.65;;
22184;SDS011;11258;52.516;13.318;2022-08-21T14:41:49;7.53;;;2.97;;
22184;SDS011;11258;52.516;13.318;2022-08-21T14:44:17;7.50;;;3.25;;
22184;SDS011;11258;52.516;13.318;2022-08-21T14:46:44;4.10;;;2.25;;
22184;SDS011;11258;52.516;13.318;2022-08-21T14:49:10;4.93;;;2.25;;
22184;SDS011;11258;52.516;13.318;2022-08-21T14:51:36;3.92;;;2.00;;
22184;SDS011;11258;52.516;13.318;2022-08-21T14:54:03;6.22;;;1.88;;
22184;SDS011;11258;52.516;13.318;2022-08-21T14:56:29;6.03;;;2.15;;
22184;SDS011;11258;52.516;13.318;2022-08-21T14:58:55;5.38;;;2.28;;
22184;SDS011;11258;52.516;13.318;2022-08-21T15:01:27;4.72;;;2.05;;
22184;SDS011;11258;52.516;13.318;2022-08-21T15:03:53;4.07;;;2.20;;
22184;SDS011;11258;52.516;13.318;2022-08-21T15:06:19;5.00;;;2.42;;
22184;SDS011;11258;52.516;13.318;2022-08-21T15:08:46;6.57;;;2.47;;
22184;SDS011;11258;52.516;13.318;2022-08-21T15:11:12;6.53;;;2.30;;
22184;SDS011;11258;52.516;13.318;2022-08-21T15:13:42;6.88;;;3.20;;
22184;SDS011;11258;52.516;13.318;2022-08-21T15:16:09;6.53;;;2.50;;
22184;SDS011;11258;52.516;13.318;2022-08-21T15:18:36;5.68;;;2.45;;
22184;SDS011;11258;52.516;13.318;2022-08-21T15:21:02;10.43;;;5.53;;
22184;SDS011;11258;52.516;13.318;2022-08-21T15:23:27;6.50;;;4.05;;
22184;SDS011;11258;52.516;13.318;2022-08-21T15:25:53;4.22;;;2.10;;
22184;SDS011;11258;52.516;13.318;2022-08-21T15:28:19;6.32;;;2.28;;
22184;SDS011;11258;52.516;13.318;2022-08-21T15:30:46;7.13;;;2.47;;
22184;SDS011;11258;52.516;13.318;2022-08-21T15:33:12;3.63;;;2.53;;
22184;SDS011;11258;52.516;13.318;2022-08-21T15:35:38;10.07;;;5.72;;
22184;SDS011;11258;52.516;13.318;2022-08-21T15:38:04;9.35;;;4.25;;
22184;SDS011;11258;52.516;13.318;2022-08-21T15:40:30;7.38;;;3.33;;
22184;SDS011;11258;52.516;13.318;2022-08-21T15:42:57;7.05;;;3.13;;
22184;SDS011;11258;52.516;13.318;2022-08-21T15:45:25;5.07;;;2.53;;
22184;SDS011;11258;52.516;13.318;2022-08-21T15:47:51;4.15;;;2.28;;
22184;SDS011;11258;52.516;13.318;2022-08-21T15:50:18;6.13;;;2.45;;
22184;SDS011;11258;52.516;13.318;2022-08-21T15:52:44;5.90;;;2.90;;
22184;SDS011;11258;52.516;13.318;2022-08-21T15:55:13;7.05;;;2.85;;